Terminal Aerodrome Forecast
Issued by NWS Bismarck, ND

Current Version | Previous Version | Text Only | Print | Product List | Glossary On
Versions: 1 2 3 4 5 6 7 8 9 10 11 12 13 14
848
FTUS43 KBIS 240521
TAFBIS
TAF
KBIS 240521Z 2406/2506 10004KT P6SM SKC
     FM241200 08004KT P6SM FEW050 FEW080
     FM241700 11009KT P6SM SKC=

USA.gov is the U.S. government's official web portal to all federal, state and local government web resources and services.